sensor_id;sensor_type;location;lat;lon;timestamp;P1;durP1;ratioP1;P2;durP2;ratioP2
76433;SDS011;65265;53.200;6.080;2023-03-01T00:02:17;6.35;;;3.47;;
76433;SDS011;65265;53.200;6.080;2023-03-01T00:07:09;7.68;;;6.88;;
76433;SDS011;65265;53.200;6.080;2023-03-01T00:12:04;5.47;;;4.78;;
76433;SDS011;65265;53.200;6.080;2023-03-01T00:17:01;7.05;;;5.28;;
76433;SDS011;65265;53.200;6.080;2023-03-01T00:21:53;7.72;;;6.85;;
76433;SDS011;65265;53.200;6.080;2023-03-01T00:26:45;8.55;;;7.82;;
76433;SDS011;65265;53.200;6.080;2023-03-01T00:31:40;7.18;;;6.47;;
76433;SDS011;65265;53.200;6.080;2023-03-01T00:36:35;4.28;;;2.67;;
76433;SDS011;65265;53.200;6.080;2023-03-01T00:41:28;5.75;;;5.25;;
76433;SDS011;65265;53.200;6.080;2023-03-01T00:46:21;3.90;;;3.50;;
76433;SDS011;65265;53.200;6.080;2023-03-01T00:51:19;5.05;;;4.65;;
76433;SDS011;65265;53.200;6.080;2023-03-01T00:56:13;5.35;;;4.95;;
76433;SDS011;65265;53.200;6.080;2023-03-01T01:01:07;5.63;;;4.95;;
76433;SDS011;65265;53.200;6.080;2023-03-01T01:06:13;8.07;;;7.18;;
76433;SDS011;65265;53.200;6.080;2023-03-01T01:11:11;6.95;;;4.43;;
76433;SDS011;65265;53.200;6.080;2023-03-01T01:16:05;8.07;;;6.75;;
76433;SDS011;65265;53.200;6.080;2023-03-01T01:21:02;6.72;;;6.03;;
76433;SDS011;65265;53.200;6.080;2023-03-01T01:25:56;5.85;;;5.30;;
76433;SDS011;65265;53.200;6.080;2023-03-01T01:30:51;6.32;;;4.85;;
76433;SDS011;65265;53.200;6.080;2023-03-01T01:35:44;6.93;;;6.43;;
76433;SDS011;65265;53.200;6.080;2023-03-01T01:40:42;5.82;;;5.32;;
76433;SDS011;65265;53.200;6.080;2023-03-01T01:45:35;5.25;;;4.88;;
76433;SDS011;65265;53.200;6.080;2023-03-01T01:50:32;4.43;;;2.65;;
76433;SDS011;65265;53.200;6.080;2023-03-01T01:55:29;4.28;;;3.88;;
76433;SDS011;65265;53.200;6.080;2023-03-01T02:00:23;4.63;;;4.20;;
76433;SDS011;65265;53.200;6.080;2023-03-01T02:05:20;6.68;;;6.13;;
76433;SDS011;65265;53.200;6.080;2023-03-01T02:10:20;4.32;;;3.92;;
76433;SDS011;65265;53.200;6.080;2023-03-01T02:15:15;5.32;;;4.78;;
76433;SDS011;65265;53.200;6.080;2023-03-01T02:20:11;5.65;;;5.25;;
76433;SDS011;65265;53.200;6.080;2023-03-01T02:30:35;4.93;;;4.53;;
76433;SDS011;65265;53.200;6.080;2023-03-01T02:35:48;4.82;;;4.43;;
76433;SDS011;65265;53.200;6.080;2023-03-01T02:40:41;4.68;;;4.30;;
76433;SDS011;65265;53.200;6.080;2023-03-01T02:45:38;4.53;;;4.13;;
76433;SDS011;65265;53.200;6.080;2023-03-01T02:50:46;5.95;;;5.45;;
76433;SDS011;65265;53.200;6.080;2023-03-01T02:55:51;6.07;;;5.57;;
76433;SDS011;65265;53.200;6.080;2023-03-01T03:00:45;6.28;;;5.78;;
76433;SDS011;65265;53.200;6.080;2023-03-01T03:05:39;6.55;;;5.95;;
76433;SDS011;65265;53.200;6.080;2023-03-01T03:10:33;6.10;;;5.70;;
76433;SDS011;65265;53.200;6.080;2023-03-01T03:15:27;4.80;;;4.35;;
76433;SDS011;65265;53.200;6.080;2023-03-01T03:20:24;7.80;;;6.80;;
76433;SDS011;65265;53.200;6.080;2023-03-01T03:25:20;6.80;;;6.30;;
76433;SDS011;65265;53.200;6.080;2023-03-01T03:30:17;7.97;;;7.15;;
76433;SDS011;65265;53.200;6.080;2023-03-01T03:35:11;6.38;;;5.88;;
76433;SDS011;65265;53.200;6.080;2023-03-01T03:40:07;5.00;;;4.60;;
76433;SDS011;65265;53.200;6.080;2023-03-01T03:45:05;7.47;;;6.90;;
76433;SDS011;65265;53.200;6.080;2023-03-01T03:49:58;5.82;;;5.32;;
76433;SDS011;65265;53.200;6.080;2023-03-01T03:54:51;4.90;;;4.40;;
76433;SDS011;65265;53.200;6.080;2023-03-01T03:59:47;6.80;;;5.70;;
76433;SDS011;65265;53.200;6.080;2023-03-01T04:04:40;7.68;;;6.93;;
76433;SDS011;65265;53.200;6.080;2023-03-01T04:09:32;5.90;;;5.07;;
76433;SDS011;65265;53.200;6.080;2023-03-01T04:14:24;7.57;;;4.93;;
76433;SDS011;65265;53.200;6.080;2023-03-01T04:19:19;9.05;;;7.25;;
76433;SDS011;65265;53.200;6.080;2023-03-01T04:24:13;8.60;;;7.30;;
76433;SDS011;65265;53.200;6.080;2023-03-01T04:29:06;7.88;;;4.13;;
76433;SDS011;65265;53.200;6.080;2023-03-01T04:33:58;10.10;;;7.28;;
76433;SDS011;65265;53.200;6.080;2023-03-01T04:38:54;8.45;;;7.57;;
76433;SDS011;65265;53.200;6.080;2023-03-01T04:43:46;9.05;;;7.35;;
76433;SDS011;65265;53.200;6.080;2023-03-01T04:48:40;8.55;;;6.95;;
76433;SDS011;65265;53.200;6.080;2023-03-01T04:53:35;8.73;;;7.82;;
76433;SDS011;65265;53.200;6.080;2023-03-01T04:58:29;10.75;;;7.65;;
76433;SDS011;65265;53.200;6.080;2023-03-01T05:03:22;9.55;;;7.32;;
76433;SDS011;65265;53.200;6.080;2023-03-01T05:08:15;8.68;;;7.18;;
76433;SDS011;65265;53.200;6.080;2023-03-01T05:13:08;9.80;;;6.68;;
76433;SDS011;65265;53.200;6.080;2023-03-01T05:18:03;11.48;;;8.43;;
76433;SDS011;65265;53.200;6.080;2023-03-01T05:23:01;8.63;;;7.80;;
76433;SDS011;65265;53.200;6.080;2023-03-01T05:27:55;9.25;;;7.00;;
76433;SDS011;65265;53.200;6.080;2023-03-01T05:37:47;9.75;;;6.15;;
76433;SDS011;65265;53.200;6.080;2023-03-01T05:42:43;8.27;;;6.47;;
76433;SDS011;65265;53.200;6.080;2023-03-01T05:47:37;8.35;;;5.03;;
76433;SDS011;65265;53.200;6.080;2023-03-01T05:52:33;12.48;;;9.10;;
76433;SDS011;65265;53.200;6.080;2023-03-01T05:57:29;7.68;;;6.88;;
76433;SDS011;65265;53.200;6.080;2023-03-01T06:02:23;7.88;;;6.82;;
76433;SDS011;65265;53.200;6.080;2023-03-01T06:07:15;10.30;;;8.30;;
76433;SDS011;65265;53.200;6.080;2023-03-01T06:12:08;10.55;;;8.18;;
76433;SDS011;65265;53.200;6.080;2023-03-01T06:17:04;14.02;;;8.70;;
76433;SDS011;65265;53.200;6.080;2023-03-01T06:21:56;8.30;;;6.82;;
76433;SDS011;65265;53.200;6.080;2023-03-01T06:26:50;7.45;;;6.65;;
76433;SDS011;65265;53.200;6.080;2023-03-01T06:31:46;8.05;;;7.15;;
76433;SDS011;65265;53.200;6.080;2023-03-01T06:36:41;6.85;;;6.18;;
76433;SDS011;65265;53.200;6.080;2023-03-01T06:41:34;9.43;;;7.72;;
76433;SDS011;65265;53.200;6.080;2023-03-01T06:46:26;12.65;;;10.20;;
76433;SDS011;65265;53.200;6.080;2023-03-01T06:51:19;8.98;;;4.63;;
76433;SDS011;65265;53.200;6.080;2023-03-01T06:56:14;11.90;;;8.70;;
76433;SDS011;65265;53.200;6.080;2023-03-01T07:01:08;11.77;;;10.55;;
76433;SDS011;65265;53.200;6.080;2023-03-01T07:06:03;10.50;;;8.23;;
76433;SDS011;65265;53.200;6.080;2023-03-01T07:10:56;8.55;;;6.15;;
76433;SDS011;65265;53.200;6.080;2023-03-01T07:15:51;9.98;;;8.43;;
76433;SDS011;65265;53.200;6.080;2023-03-01T07:20:43;6.97;;;6.28;;
76433;SDS011;65265;53.200;6.080;2023-03-01T07:25:36;9.48;;;7.57;;
76433;SDS011;65265;53.200;6.080;2023-03-01T07:30:28;7.82;;;6.50;;
76433;SDS011;65265;53.200;6.080;2023-03-01T07:35:25;7.40;;;6.70;;
76433;SDS011;65265;53.200;6.080;2023-03-01T07:40:19;8.65;;;6.00;;
76433;SDS011;65265;53.200;6.080;2023-03-01T07:45:11;8.07;;;7.25;;
76433;SDS011;65265;53.200;6.080;2023-03-01T07:50:03;11.10;;;9.05;;
76433;SDS011;65265;53.200;6.080;2023-03-01T07:54:59;10.93;;;8.20;;
76433;SDS011;65265;53.200;6.080;2023-03-01T07:59:52;9.48;;;7.35;;
76433;SDS011;65265;53.200;6.080;2023-03-01T08:04:44;13.07;;;9.02;;
76433;SDS011;65265;53.200;6.080;2023-03-01T08:09:38;12.45;;;8.65;;
76433;SDS011;65265;53.200;6.080;2023-03-01T08:14:33;12.30;;;9.00;;
76433;SDS011;65265;53.200;6.080;2023-03-01T08:19:25;12.63;;;10.75;;
76433;SDS011;65265;53.200;6.080;2023-03-01T08:24:19;11.38;;;8.88;;
76433;SDS011;65265;53.200;6.080;2023-03-01T08:29:14;11.65;;;9.73;;
76433;SDS011;65265;53.200;6.080;2023-03-01T08:34:10;15.38;;;10.40;;
76433;SDS011;65265;53.200;6.080;2023-03-01T08:39:06;12.98;;;9.68;;
76433;SDS011;65265;53.200;6.080;2023-03-01T08:44:00;12.18;;;10.70;;
76433;SDS011;65265;53.200;6.080;2023-03-01T08:48:53;14.77;;;10.32;;
76433;SDS011;65265;53.200;6.080;2023-03-01T08:53:48;15.57;;;11.60;;
76433;SDS011;65265;53.200;6.080;2023-03-01T08:58:42;18.52;;;11.15;;
76433;SDS011;65265;53.200;6.080;2023-03-01T09:03:36;17.20;;;10.90;;
76433;SDS011;65265;53.200;6.080;2023-03-01T09:08:29;17.25;;;12.63;;
76433;SDS011;65265;53.200;6.080;2023-03-01T09:13:25;16.15;;;12.45;;
76433;SDS011;65265;53.200;6.080;2023-03-01T09:18:21;19.88;;;12.82;;
76433;SDS011;65265;53.200;6.080;2023-03-01T09:23:13;21.73;;;13.93;;
76433;SDS011;65265;53.200;6.080;2023-03-01T09:28:05;26.08;;;18.77;;
76433;SDS011;65265;53.200;6.080;2023-03-01T09:33:00;28.40;;;17.08;;
76433;SDS011;65265;53.200;6.080;2023-03-01T09:37:52;27.65;;;19.15;;
76433;SDS011;65265;53.200;6.080;2023-03-01T09:42:50;27.20;;;16.13;;
76433;SDS011;65265;53.200;6.080;2023-03-01T09:47:46;27.20;;;16.77;;
76433;SDS011;65265;53.200;6.080;2023-03-01T09:52:47;20.15;;;13.75;;
76433;SDS011;65265;53.200;6.080;2023-03-01T09:57:47;21.70;;;15.48;;
76433;SDS011;65265;53.200;6.080;2023-03-01T10:02:47;24.40;;;15.88;;
76433;SDS011;65265;53.200;6.080;2023-03-01T10:07:53;22.90;;;14.93;;
76433;SDS011;65265;53.200;6.080;2023-03-01T10:12:54;21.70;;;14.32;;
76433;SDS011;65265;53.200;6.080;2023-03-01T10:22:42;23.33;;;16.15;;
76433;SDS011;65265;53.200;6.080;2023-03-01T10:27:45;22.55;;;15.48;;
76433;SDS011;65265;53.200;6.080;2023-03-01T10:32:43;26.02;;;14.95;;
76433;SDS011;65265;53.200;6.080;2023-03-01T10:37:42;22.25;;;15.52;;
76433;SDS011;65265;53.200;6.080;2023-03-01T10:42:50;22.02;;;14.25;;
76433;SDS011;65265;53.200;6.080;2023-03-01T10:47:44;20.23;;;14.30;;
76433;SDS011;65265;53.200;6.080;2023-03-01T10:52:36;15.70;;;12.00;;
76433;SDS011;65265;53.200;6.080;2023-03-01T10:57:35;19.10;;;14.25;;
76433;SDS011;65265;53.200;6.080;2023-03-01T11:02:34;29.00;;;15.88;;
76433;SDS011;65265;53.200;6.080;2023-03-01T11:07:26;19.25;;;14.00;;
76433;SDS011;65265;53.200;6.080;2023-03-01T11:12:21;17.67;;;12.70;;
76433;SDS011;65265;53.200;6.080;2023-03-01T11:17:15;15.85;;;13.13;;
76433;SDS011;65265;53.200;6.080;2023-03-01T11:22:18;18.25;;;14.02;;
76433;SDS011;65265;53.200;6.080;2023-03-01T11:27:18;16.08;;;11.93;;
76433;SDS011;65265;53.200;6.080;2023-03-01T11:37:09;18.65;;;11.25;;
76433;SDS011;65265;53.200;6.080;2023-03-01T11:42:17;17.38;;;10.32;;
76433;SDS011;65265;53.200;6.080;2023-03-01T11:47:19;15.02;;;10.40;;
76433;SDS011;65265;53.200;6.080;2023-03-01T11:52:33;16.15;;;10.38;;
76433;SDS011;65265;53.200;6.080;2023-03-01T11:57:44;15.35;;;11.25;;
76433;SDS011;65265;53.200;6.080;2023-03-01T12:08:13;14.82;;;10.50;;
76433;SDS011;65265;53.200;6.080;2023-03-01T12:13:18;16.70;;;11.82;;
76433;SDS011;65265;53.200;6.080;2023-03-01T12:18:33;15.35;;;10.68;;
76433;SDS011;65265;53.200;6.080;2023-03-01T12:34:21;14.40;;;8.52;;
76433;SDS011;65265;53.200;6.080;2023-03-01T12:39:37;10.90;;;7.40;;
76433;SDS011;65265;53.200;6.080;2023-03-01T12:44:47;13.38;;;8.23;;
76433;SDS011;65265;53.200;6.080;2023-03-01T12:49:51;11.55;;;7.35;;
76433;SDS011;65265;53.200;6.080;2023-03-01T12:54:46;13.50;;;7.72;;
76433;SDS011;65265;53.200;6.080;2023-03-01T12:59:42;8.80;;;6.68;;
76433;SDS011;65265;53.200;6.080;2023-03-01T13:04:53;12.98;;;8.18;;
76433;SDS011;65265;53.200;6.080;2023-03-01T13:10:05;12.73;;;7.10;;
76433;SDS011;65265;53.200;6.080;2023-03-01T13:15:19;14.02;;;6.75;;
76433;SDS011;65265;53.200;6.080;2023-03-01T13:20:18;12.52;;;8.02;;
76433;SDS011;65265;53.200;6.080;2023-03-01T13:25:13;12.75;;;7.55;;
76433;SDS011;65265;53.200;6.080;2023-03-01T13:35:45;12.23;;;7.45;;
76433;SDS011;65265;53.200;6.080;2023-03-01T13:40:57;11.68;;;7.50;;
76433;SDS011;65265;53.200;6.080;2023-03-01T13:45:50;12.82;;;7.95;;
76433;SDS011;65265;53.200;6.080;2023-03-01T13:50:48;13.07;;;7.28;;
76433;SDS011;65265;53.200;6.080;2023-03-01T13:55:43;12.75;;;7.68;;
76433;SDS011;65265;53.200;6.080;2023-03-01T14:00:38;12.07;;;7.90;;
76433;SDS011;65265;53.200;6.080;2023-03-01T14:05:31;12.63;;;6.88;;
76433;SDS011;65265;53.200;6.080;2023-03-01T14:10:32;13.88;;;7.30;;
76433;SDS011;65265;53.200;6.080;2023-03-01T14:15:34;12.40;;;7.00;;
76433;SDS011;65265;53.200;6.080;2023-03-01T14:20:31;12.93;;;8.38;;
76433;SDS011;65265;53.200;6.080;2023-03-01T14:25:32;13.88;;;8.75;;
76433;SDS011;65265;53.200;6.080;2023-03-01T14:30:27;11.20;;;6.65;;
76433;SDS011;65265;53.200;6.080;2023-03-01T14:35:26;13.88;;;7.70;;
76433;SDS011;65265;53.200;6.080;2023-03-01T14:40:21;11.82;;;7.32;;
76433;SDS011;65265;53.200;6.080;2023-03-01T14:45:18;13.23;;;6.22;;
76433;SDS011;65265;53.200;6.080;2023-03-01T14:50:15;11.85;;;7.45;;
76433;SDS011;65265;53.200;6.080;2023-03-01T14:55:16;11.45;;;7.15;;
76433;SDS011;65265;53.200;6.080;2023-03-01T15:00:11;12.98;;;6.97;;
76433;SDS011;65265;53.200;6.080;2023-03-01T15:05:18;11.85;;;7.68;;
76433;SDS011;65265;53.200;6.080;2023-03-01T15:10:17;13.63;;;8.68;;
76433;SDS011;65265;53.200;6.080;2023-03-01T15:15:22;14.68;;;8.27;;
76433;SDS011;65265;53.200;6.080;2023-03-01T15:20:33;13.60;;;8.43;;
76433;SDS011;65265;53.200;6.080;2023-03-01T15:25:29;14.18;;;8.18;;
76433;SDS011;65265;53.200;6.080;2023-03-01T15:30:25;10.88;;;6.15;;
76433;SDS011;65265;53.200;6.080;2023-03-01T15:35:39;14.27;;;7.13;;
76433;SDS011;65265;53.200;6.080;2023-03-01T15:40:32;12.23;;;7.50;;
76433;SDS011;65265;53.200;6.080;2023-03-01T15:45:29;12.60;;;7.57;;
76433;SDS011;65265;53.200;6.080;2023-03-01T15:50:25;10.15;;;7.53;;
76433;SDS011;65265;53.200;6.080;2023-03-01T15:55:23;12.60;;;6.50;;
76433;SDS011;65265;53.200;6.080;2023-03-01T16:00:19;11.23;;;6.45;;
76433;SDS011;65265;53.200;6.080;2023-03-01T16:05:15;12.27;;;7.53;;
76433;SDS011;65265;53.200;6.080;2023-03-01T16:10:12;10.68;;;7.00;;
76433;SDS011;65265;53.200;6.080;2023-03-01T16:15:11;11.38;;;7.05;;
76433;SDS011;65265;53.200;6.080;2023-03-01T16:20:07;16.30;;;8.15;;
76433;SDS011;65265;53.200;6.080;2023-03-01T16:25:00;19.70;;;11.95;;
76433;SDS011;65265;53.200;6.080;2023-03-01T16:29:52;17.02;;;10.63;;
76433;SDS011;65265;53.200;6.080;2023-03-01T16:34:47;16.73;;;10.38;;
76433;SDS011;65265;53.200;6.080;2023-03-01T16:39:39;19.05;;;9.88;;
76433;SDS011;65265;53.200;6.080;2023-03-01T16:44:32;19.13;;;10.77;;
76433;SDS011;65265;53.200;6.080;2023-03-01T16:49:24;22.27;;;10.93;;
76433;SDS011;65265;53.200;6.080;2023-03-01T16:54:18;17.80;;;11.40;;
76433;SDS011;65265;53.200;6.080;2023-03-01T16:59:11;18.60;;;10.13;;
76433;SDS011;65265;53.200;6.080;2023-03-01T17:04:04;19.35;;;11.57;;
76433;SDS011;65265;53.200;6.080;2023-03-01T17:08:57;20.90;;;11.52;;
76433;SDS011;65265;53.200;6.080;2023-03-01T17:13:52;20.98;;;11.50;;
76433;SDS011;65265;53.200;6.080;2023-03-01T17:18:46;20.45;;;12.48;;
76433;SDS011;65265;53.200;6.080;2023-03-01T17:23:40;17.50;;;11.00;;
76433;SDS011;65265;53.200;6.080;2023-03-01T17:28:36;20.10;;;11.38;;
76433;SDS011;65265;53.200;6.080;2023-03-01T17:38:26;17.73;;;11.15;;
76433;SDS011;65265;53.200;6.080;2023-03-01T17:43:18;21.10;;;11.32;;
76433;SDS011;65265;53.200;6.080;2023-03-01T17:48:10;22.80;;;12.35;;
76433;SDS011;65265;53.200;6.080;2023-03-01T17:53:04;25.38;;;13.30;;
76433;SDS011;65265;53.200;6.080;2023-03-01T17:57:59;17.95;;;11.05;;
76433;SDS011;65265;53.200;6.080;2023-03-01T18:02:51;20.52;;;10.13;;
76433;SDS011;65265;53.200;6.080;2023-03-01T18:07:44;20.10;;;11.57;;
76433;SDS011;65265;53.200;6.080;2023-03-01T18:12:37;17.70;;;10.20;;
76433;SDS011;65265;53.200;6.080;2023-03-01T18:22:22;17.73;;;10.07;;
76433;SDS011;65265;53.200;6.080;2023-03-01T18:27:14;16.85;;;9.55;;
76433;SDS011;65265;53.200;6.080;2023-03-01T18:32:08;20.48;;;10.27;;
76433;SDS011;65265;53.200;6.080;2023-03-01T18:37:00;15.52;;;9.52;;
76433;SDS011;65265;53.200;6.080;2023-03-01T18:41:52;18.67;;;9.50;;
76433;SDS011;65265;53.200;6.080;2023-03-01T18:46:44;16.30;;;9.63;;
76433;SDS011;65265;53.200;6.080;2023-03-01T18:51:38;17.55;;;8.88;;
76433;SDS011;65265;53.200;6.080;2023-03-01T18:56:31;17.10;;;8.88;;
76433;SDS011;65265;53.200;6.080;2023-03-01T19:01:27;15.40;;;9.45;;
76433;SDS011;65265;53.200;6.080;2023-03-01T19:06:20;16.60;;;9.20;;
76433;SDS011;65265;53.200;6.080;2023-03-01T19:11:15;19.48;;;10.75;;
76433;SDS011;65265;53.200;6.080;2023-03-01T19:16:08;18.95;;;10.43;;
76433;SDS011;65265;53.200;6.080;2023-03-01T19:21:03;21.58;;;11.77;;
76433;SDS011;65265;53.200;6.080;2023-03-01T19:25:58;16.17;;;9.35;;
76433;SDS011;65265;53.200;6.080;2023-03-01T19:30:52;22.35;;;12.18;;
76433;SDS011;65265;53.200;6.080;2023-03-01T19:35:49;27.52;;;14.48;;
76433;SDS011;65265;53.200;6.080;2023-03-01T19:40:41;28.05;;;15.38;;
76433;SDS011;65265;53.200;6.080;2023-03-01T19:45:33;27.67;;;14.95;;
76433;SDS011;65265;53.200;6.080;2023-03-01T19:50:27;24.92;;;13.00;;
76433;SDS011;65265;53.200;6.080;2023-03-01T19:55:19;18.77;;;11.65;;
76433;SDS011;65265;53.200;6.080;2023-03-01T20:00:12;26.95;;;13.63;;
76433;SDS011;65265;53.200;6.080;2023-03-01T20:05:06;21.60;;;13.52;;
76433;SDS011;65265;53.200;6.080;2023-03-01T20:10:02;28.33;;;13.35;;
76433;SDS011;65265;53.200;6.080;2023-03-01T20:14:54;21.40;;;12.20;;
76433;SDS011;65265;53.200;6.080;2023-03-01T20:19:46;26.35;;;13.57;;
76433;SDS011;65265;53.200;6.080;2023-03-01T20:24:38;26.27;;;12.85;;
76433;SDS011;65265;53.200;6.080;2023-03-01T20:29:32;30.15;;;16.05;;
76433;SDS011;65265;53.200;6.080;2023-03-01T20:34:24;26.40;;;12.95;;
76433;SDS011;65265;53.200;6.080;2023-03-01T20:39:17;27.73;;;14.45;;
76433;SDS011;65265;53.200;6.080;2023-03-01T20:44:09;31.42;;;14.30;;
76433;SDS011;65265;53.200;6.080;2023-03-01T20:49:03;29.83;;;14.30;;
76433;SDS011;65265;53.200;6.080;2023-03-01T20:53:56;29.48;;;14.68;;
76433;SDS011;65265;53.200;6.080;2023-03-01T20:58:48;36.17;;;16.17;;
76433;SDS011;65265;53.200;6.080;2023-03-01T21:03:40;30.08;;;15.75;;
76433;SDS011;65265;53.200;6.080;2023-03-01T21:08:35;28.95;;;15.70;;
76433;SDS011;65265;53.200;6.080;2023-03-01T21:13:27;27.48;;;14.82;;
76433;SDS011;65265;53.200;6.080;2023-03-01T21:18:20;27.00;;;13.57;;
76433;SDS011;65265;53.200;6.080;2023-03-01T21:23:13;28.75;;;14.90;;
76433;SDS011;65265;53.200;6.080;2023-03-01T21:28:10;30.55;;;17.02;;
76433;SDS011;65265;53.200;6.080;2023-03-01T21:33:04;27.63;;;13.63;;
76433;SDS011;65265;53.200;6.080;2023-03-01T21:37:56;30.80;;;14.23;;
76433;SDS011;65265;53.200;6.080;2023-03-01T21:42:48;28.80;;;13.57;;
76433;SDS011;65265;53.200;6.080;2023-03-01T21:47:42;32.75;;;16.15;;
76433;SDS011;65265;53.200;6.080;2023-03-01T21:52:35;25.48;;;12.27;;
76433;SDS011;65265;53.200;6.080;2023-03-01T21:57:27;28.88;;;14.05;;
76433;SDS011;65265;53.200;6.080;2023-03-01T22:02:19;22.83;;;12.23;;
76433;SDS011;65265;53.200;6.080;2023-03-01T22:07:14;24.90;;;12.80;;
76433;SDS011;65265;53.200;6.080;2023-03-01T22:12:07;28.65;;;14.13;;
76433;SDS011;65265;53.200;6.080;2023-03-01T22:16:59;28.98;;;13.70;;
76433;SDS011;65265;53.200;6.080;2023-03-01T22:21:51;25.85;;;13.68;;
76433;SDS011;65265;53.200;6.080;2023-03-01T22:26:46;24.23;;;12.75;;
76433;SDS011;65265;53.200;6.080;2023-03-01T22:31:41;24.60;;;12.60;;
76433;SDS011;65265;53.200;6.080;2023-03-01T22:36:34;21.10;;;11.52;;
76433;SDS011;65265;53.200;6.080;2023-03-01T22:41:29;21.45;;;10.43;;
76433;SDS011;65265;53.200;6.080;2023-03-01T22:46:26;22.63;;;11.93;;
76433;SDS011;65265;53.200;6.080;2023-03-01T22:51:22;21.60;;;11.57;;
76433;SDS011;65265;53.200;6.080;2023-03-01T22:56:18;25.83;;;12.98;;
76433;SDS011;65265;53.200;6.080;2023-03-01T23:01:11;23.08;;;12.32;;
76433;SDS011;65265;53.200;6.080;2023-03-01T23:06:07;27.05;;;13.77;;
76433;SDS011;65265;53.200;6.080;2023-03-01T23:10:59;22.77;;;11.65;;
76433;SDS011;65265;53.200;6.080;2023-03-01T23:15:52;20.38;;;11.75;;
76433;SDS011;65265;53.200;6.080;2023-03-01T23:20:45;22.55;;;11.45;;
76433;SDS011;65265;53.200;6.080;2023-03-01T23:25:39;20.08;;;9.95;;
76433;SDS011;65265;53.200;6.080;2023-03-01T23:30:31;22.65;;;13.18;;
76433;SDS011;65265;53.200;6.080;2023-03-01T23:35:23;20.65;;;10.93;;
76433;SDS011;65265;53.200;6.080;2023-03-01T23:40:15;18.08;;;9.80;;
76433;SDS011;65265;53.200;6.080;2023-03-01T23:45:11;22.00;;;10.85;;
76433;SDS011;65265;53.200;6.080;2023-03-01T23:50:03;22.83;;;11.43;;
76433;SDS011;65265;53.200;6.080;2023-03-01T23:54:56;23.50;;;12.48;;
76433;SDS011;65265;53.200;6.080;2023-03-01T23:59:48;27.75;;;13.00;;
